Time;durP1;ratioP1;P1;durP2;ratioP2;P2;SDS_P1;SDS_P2;PMS_P1;PMS_P2;Temp;Humidity;BMP_temperature;BMP_pressure;BME280_temperature;BME280_humidity;BME280_pressure;Samples;Min_cycle;Max_cycle;Signal;HPM_P1;HPM_P2
2021/09/20 00:01:55;;;;;;;4.70;3.23;;;13.10;1.00;;;;;;5038838;28;21190;-84
2021/09/20 00:04:26;;;;;;;4.50;3.17;;;13.10;1.00;;;;;;5043003;28;20500;-83
2021/09/20 00:06:52;;;;;;;4.53;3.10;;;13.10;1.00;;;;;;5033207;28;20443;-85
2021/09/20 00:09:19;;;;;;;5.60;3.50;;;13.10;1.00;;;;;;5038134;28;20453;-82
2021/09/20 00:11:46;;;;;;;5.20;2.67;;;13.10;1.00;;;;;;5031982;28;20564;-83
2021/09/20 00:14:13;;;;;;;6.67;3.30;;;13.00;1.00;;;;;;5029732;28;20567;-83
2021/09/20 00:16:39;;;;;;;4.97;2.53;;;13.00;1.00;;;;;;5031101;28;20455;-83
2021/09/20 00:19:06;;;;;;;5.30;3.20;;;13.00;1.00;;;;;;5029304;28;20458;-83
2021/09/20 00:21:34;;;;;;;3.70;2.90;;;13.10;1.00;;;;;;5025965;28;20563;-82
2021/09/20 00:24:04;;;;;;;5.33;3.10;;;13.20;1.00;;;;;;5027151;28;20457;-82
2021/09/20 00:26:31;;;;;;;4.13;2.93;;;13.20;1.00;;;;;;5032102;28;20986;-83
2021/09/20 00:28:58;;;;;;;3.07;2.50;;;13.10;1.00;;;;;;5032500;28;20453;-83
2021/09/20 00:31:24;;;;;;;4.53;2.90;;;13.10;1.00;;;;;;5029265;28;20564;-82
2021/09/20 00:33:51;;;;;;;3.50;3.00;;;13.10;1.00;;;;;;5026447;28;20481;-82
2021/09/20 00:36:18;;;;;;;3.93;3.43;;;13.20;1.00;;;;;;5031443;28;20442;-83
2021/09/20 00:38:46;;;;;;;3.00;2.63;;;13.10;1.00;;;;;;5031405;28;20460;-83
2021/09/20 00:41:13;;;;;;;3.67;2.57;;;13.10;1.00;;;;;;5026685;28;20511;-83
2021/09/20 00:43:39;;;;;;;3.70;2.70;;;13.20;1.00;;;;;;5032083;28;20494;-83
2021/09/20 00:46:08;;;;;;;3.87;2.87;;;13.10;1.00;;;;;;5029398;28;21197;-85
2021/09/20 00:48:38;;;;;;;3.27;2.67;;;13.10;1.00;;;;;;5025289;28;20437;-83
2021/09/20 00:51:05;;;;;;;3.33;2.53;;;13.10;1.00;;;;;;5022541;28;20444;-82
2021/09/20 00:53:31;;;;;;;6.60;3.30;;;13.10;1.00;;;;;;5026928;28;20455;-84
2021/09/20 00:56:01;;;;;;;4.57;2.70;;;13.00;1.00;;;;;;5029500;28;21144;-84
2021/09/20 00:58:29;;;;;;;5.60;3.57;;;13.00;1.00;;;;;;5027438;28;21265;-84
2021/09/20 01:01:00;;;;;;;7.33;3.10;;;13.00;1.00;;;;;;5029952;28;21355;-83
2021/09/20 01:03:26;;;;;;;6.20;3.10;;;13.10;1.00;;;;;;5029470;28;21539;-82
2021/09/20 01:05:53;;;;;;;3.97;3.50;;;13.00;1.00;;;;;;5029066;28;21432;-84
2021/09/20 01:08:20;;;;;;;4.17;2.80;;;13.00;1.00;;;;;;5027811;28;20468;-81
2021/09/20 01:10:47;;;;;;;5.70;3.30;;;13.00;1.00;;;;;;5026617;28;20690;-83
2021/09/20 01:13:15;;;;;;;4.20;3.10;;;13.00;1.00;;;;;;5033032;28;20476;-82
2021/09/20 01:15:42;;;;;;;4.60;3.10;;;13.10;1.00;;;;;;5031005;28;20848;-83
2021/09/20 01:18:08;;;;;;;5.30;3.63;;;13.00;1.00;;;;;;5026617;28;20452;-83
2021/09/20 01:20:35;;;;;;;4.30;3.00;;;13.00;1.00;;;;;;5029631;28;21255;-83
2021/09/20 01:23:04;;;;;;;4.60;3.37;;;13.00;1.00;;;;;;5025932;28;21892;-83
2021/09/20 01:25:32;;;;;;;3.93;2.97;;;13.00;1.00;;;;;;5026784;28;20461;-82
2021/09/20 01:27:59;;;;;;;4.40;3.07;;;12.90;1.00;;;;;;5041789;28;20448;-84
2021/09/20 01:30:27;;;;;;;3.10;2.80;;;13.00;1.00;;;;;;5029162;28;20444;-83
2021/09/20 01:32:53;;;;;;;6.80;3.60;;;13.00;1.00;;;;;;5026518;28;20520;-83
2021/09/20 01:35:24;;;;;;;4.10;2.93;;;13.00;1.00;;;;;;5039134;28;20540;-83
2021/09/20 01:37:51;;;;;;;5.27;3.73;;;13.00;1.00;;;;;;5031500;28;20503;-84
2021/09/20 01:40:20;;;;;;;4.00;3.60;;;13.00;1.00;;;;;;5026202;28;20533;-83
2021/09/20 01:42:46;;;;;;;5.97;3.60;;;13.00;1.00;;;;;;5028001;28;20493;-83
2021/09/20 01:45:15;;;;;;;5.10;3.00;;;12.90;1.00;;;;;;5027291;28;20418;-83
2021/09/20 01:47:42;;;;;;;4.07;3.67;;;13.00;1.00;;;;;;5031281;28;20570;-84
2021/09/20 01:50:12;;;;;;;6.00;3.83;;;13.00;1.00;;;;;;5027307;28;20452;-84
2021/09/20 01:52:40;;;;;;;4.90;3.40;;;13.00;1.00;;;;;;5029291;28;20428;-83
2021/09/20 01:55:07;;;;;;;4.80;3.80;;;13.00;1.00;;;;;;5029910;28;20470;-85
2021/09/20 01:57:36;;;;;;;6.40;4.10;;;13.00;1.00;;;;;;5025500;28;20463;-84
2021/09/20 02:00:03;;;;;;;4.13;3.50;;;13.00;1.00;;;;;;5028265;28;20491;-83
2021/09/20 02:02:30;;;;;;;4.53;4.10;;;13.00;1.00;;;;;;5025481;28;20465;-81
2021/09/20 02:04:57;;;;;;;5.80;3.97;;;12.90;1.00;;;;;;5025536;28;20460;-85
2021/09/20 02:07:23;;;;;;;5.30;3.53;;;12.90;1.00;;;;;;5028015;28;20464;-82
2021/09/20 02:09:50;;;;;;;3.97;3.07;;;12.90;1.00;;;;;;5027441;28;21985;-82
2021/09/20 02:12:17;;;;;;;6.03;3.90;;;12.90;1.00;;;;;;5025680;28;20575;-82
2021/09/20 02:14:47;;;;;;;5.53;3.57;;;12.90;1.00;;;;;;5029639;28;20497;-83
2021/09/20 02:17:13;;;;;;;4.80;3.40;;;12.90;1.00;;;;;;5034508;28;20580;-81
2021/09/20 02:19:40;;;;;;;6.70;3.80;;;12.90;1.00;;;;;;5036830;28;20456;-83
2021/09/20 02:22:07;;;;;;;4.80;3.57;;;12.90;1.00;;;;;;5033174;28;20413;-82
2021/09/20 02:24:34;;;;;;;4.43;3.60;;;12.90;1.00;;;;;;5036141;28;21557;-82
2021/09/20 02:27:01;;;;;;;5.03;3.70;;;12.90;1.00;;;;;;5029837;28;20516;-83
2021/09/20 02:29:28;;;;;;;4.87;3.60;;;12.90;1.00;;;;;;5027037;28;20447;-83
2021/09/20 02:31:56;;;;;;;6.13;4.40;;;12.90;1.00;;;;;;5025515;28;20469;-83
2021/09/20 02:34:23;;;;;;;7.40;3.70;;;12.90;1.00;;;;;;5026993;28;20457;-84
2021/09/20 02:36:49;;;;;;;4.73;3.80;;;12.90;1.00;;;;;;5026366;28;20459;-83
2021/09/20 02:39:16;;;;;;;6.50;3.83;;;12.90;1.00;;;;;;5025302;28;20481;-84
2021/09/20 02:41:43;;;;;;;4.83;4.10;;;12.90;1.00;;;;;;5028408;28;21431;-82
2021/09/20 02:44:12;;;;;;;5.63;3.90;;;12.90;1.00;;;;;;5025623;28;20463;-82
2021/09/20 02:46:39;;;;;;;3.87;3.47;;;12.90;1.00;;;;;;5029969;28;20472;-84
2021/09/20 02:49:07;;;;;;;7.33;4.83;;;12.90;1.00;;;;;;5025422;28;20453;-84
2021/09/20 02:51:34;;;;;;;7.70;4.20;;;12.90;1.00;;;;;;5027492;28;20433;-82
2021/09/20 02:54:00;;;;;;;5.23;3.47;;;13.00;1.00;;;;;;5023945;28;20473;-83
2021/09/20 02:56:27;;;;;;;5.17;3.97;;;12.90;1.00;;;;;;5024948;28;20456;-82
2021/09/20 02:58:54;;;;;;;4.93;3.43;;;12.90;1.00;;;;;;5028183;28;20473;-82
2021/09/20 03:01:20;;;;;;;4.10;3.60;;;12.90;1.00;;;;;;5030608;28;20448;-82
2021/09/20 03:03:47;;;;;;;4.90;4.40;;;12.90;1.00;;;;;;5027949;28;20449;-82
2021/09/20 03:06:16;;;;;;;6.40;3.77;;;13.00;1.00;;;;;;5028530;28;20487;-82
2021/09/20 03:08:42;;;;;;;4.90;4.20;;;13.00;1.00;;;;;;5029881;28;21035;-83
2021/09/20 03:11:09;;;;;;;6.30;4.53;;;13.00;1.00;;;;;;5027997;28;20525;-83
2021/09/20 03:13:36;;;;;;;6.40;3.70;;;12.90;1.00;;;;;;5041925;28;20979;-83
2021/09/20 03:16:03;;;;;;;4.87;3.10;;;12.80;1.00;;;;;;5029514;28;20523;-83
2021/09/20 03:18:29;;;;;;;6.20;3.83;;;12.90;1.00;;;;;;5032089;28;20495;-83
2021/09/20 03:20:56;;;;;;;5.17;4.67;;;12.90;1.00;;;;;;5034624;28;21213;-82
2021/09/20 03:23:24;;;;;;;6.70;4.00;;;12.90;1.00;;;;;;5027647;28;21066;-83
2021/09/20 03:25:51;;;;;;;4.87;3.70;;;12.80;1.00;;;;;;5035549;28;20455;-82
2021/09/20 03:28:17;;;;;;;6.63;4.10;;;12.80;1.00;;;;;;5030130;28;20449;-82
2021/09/20 03:30:45;;;;;;;7.83;3.83;;;12.90;1.00;;;;;;5030635;28;20424;-82
2021/09/20 03:33:11;;;;;;;4.73;3.40;;;12.90;1.00;;;;;;5041338;28;20578;-82
2021/09/20 03:35:38;;;;;;;6.30;5.03;;;12.90;1.00;;;;;;5026872;28;20541;-83
2021/09/20 03:38:05;;;;;;;5.17;4.10;;;12.90;1.00;;;;;;5028848;28;20469;-83
2021/09/20 03:40:33;;;;;;;5.57;4.90;;;12.90;1.00;;;;;;5031278;28;20468;-83
2021/09/20 03:43:00;;;;;;;7.30;5.70;;;12.80;1.00;;;;;;5031270;28;20456;-83
2021/09/20 03:45:26;;;;;;;7.47;4.10;;;12.90;1.00;;;;;;5028129;28;20458;-83
2021/09/20 03:47:53;;;;;;;5.43;4.10;;;12.80;1.00;;;;;;5034179;28;20448;-83
2021/09/20 03:50:20;;;;;;;6.17;4.73;;;12.80;1.00;;;;;;5035599;28;20477;-82
2021/09/20 03:52:47;;;;;;;7.67;4.63;;;12.80;1.00;;;;;;5030520;28;20445;-83
2021/09/20 03:55:14;;;;;;;5.97;4.30;;;12.80;1.00;;;;;;5032050;28;20472;-83
2021/09/20 03:57:42;;;;;;;5.73;4.13;;;12.80;1.00;;;;;;5032277;28;20452;-83
2021/09/20 04:00:11;;;;;;;4.90;4.20;;;12.80;1.00;;;;;;5033142;28;20437;-83
2021/09/20 04:02:38;;;;;;;8.07;4.80;;;12.80;1.00;;;;;;5038102;28;20450;-82
2021/09/20 04:05:06;;;;;;;6.60;4.40;;;12.80;1.00;;;;;;5034447;28;20488;-82
2021/09/20 04:07:32;;;;;;;6.30;5.70;;;12.80;1.00;;;;;;5039475;28;20452;-82
2021/09/20 04:10:01;;;;;;;9.33;5.33;;;12.80;1.00;;;;;;5041543;28;20421;-83
2021/09/20 04:12:28;;;;;;;7.37;5.10;;;12.80;1.00;;;;;;5035340;28;20529;-80
2021/09/20 04:14:55;;;;;;;5.70;4.30;;;12.80;1.00;;;;;;5031801;28;20471;-79
2021/09/20 04:17:22;;;;;;;5.33;4.03;;;12.80;1.00;;;;;;5032903;28;20463;-80
2021/09/20 04:19:49;;;;;;;6.00;4.93;;;12.80;1.00;;;;;;5034255;28;20555;-80
2021/09/20 04:22:16;;;;;;;7.37;5.90;;;12.80;1.00;;;;;;5030721;28;20441;-80
2021/09/20 04:24:42;;;;;;;11.47;7.20;;;12.80;1.00;;;;;;5033693;28;20504;-81
2021/09/20 04:27:09;;;;;;;6.03;4.07;;;12.80;1.00;;;;;;5030138;28;20423;-80
2021/09/20 04:29:36;;;;;;;12.67;10.03;;;12.80;1.00;;;;;;5040110;28;21314;-79
2021/09/20 04:32:07;;;;;;;7.73;4.47;;;12.80;1.00;;;;;;5031678;28;20445;-80
2021/09/20 04:34:37;;;;;;;5.30;4.80;;;12.80;1.00;;;;;;5032096;28;20448;-80
2021/09/20 04:37:04;;;;;;;7.60;4.20;;;12.80;1.00;;;;;;5036547;28;21025;-80
2021/09/20 04:39:34;;;;;;;9.80;5.90;;;12.90;1.00;;;;;;5034972;28;20768;-80
2021/09/20 04:42:04;;;;;;;7.50;4.53;;;12.80;1.00;;;;;;5038164;28;20473;-79
2021/09/20 04:44:31;;;;;;;9.13;4.90;;;12.90;1.00;;;;;;5030013;28;20485;-81
2021/09/20 04:46:58;;;;;;;9.70;4.67;;;12.90;1.00;;;;;;5035075;28;20460;-82
2021/09/20 04:49:31;;;;;;;5.63;4.30;;;12.80;1.00;;;;;;5032841;28;21900;-85
2021/09/20 04:52:23;;;;;;;7.97;5.00;;;12.80;1.00;;;;;;5040242;28;20460;-86
2021/09/20 04:57:55;;;;;;;5.93;4.20;;;12.90;1.00;;;;;;5035343;28;20451;-83
2021/09/20 05:00:29;;;;;;;9.53;5.37;;;12.90;1.00;;;;;;5040226;28;22461;-84
2021/09/20 05:03:02;;;;;;;6.77;4.63;;;12.90;1.00;;;;;;5030702;28;20522;-83
2021/09/20 05:05:38;;;;;;;8.87;5.50;;;12.90;1.00;;;;;;5034477;28;20476;-83
2021/09/20 05:08:06;;;;;;;5.20;4.40;;;12.80;1.00;;;;;;5046299;28;20900;-83
2021/09/20 05:10:33;;;;;;;7.60;4.33;;;12.80;1.00;;;;;;5031380;28;21052;-83
2021/09/20 05:13:16;;;;;;;10.53;9.17;;;12.90;1.00;;;;;;5033435;28;20477;-83
2021/09/20 05:15:52;;;;;;;7.60;5.20;;;13.00;1.00;;;;;;5033940;28;20492;-84
2021/09/20 05:18:19;;;;;;;6.10;4.20;;;13.10;1.00;;;;;;5031445;28;20441;-84
2021/09/20 05:20:48;;;;;;;7.47;4.73;;;13.10;1.00;;;;;;5037517;28;20461;-84
2021/09/20 05:23:14;;;;;;;7.73;6.00;;;13.10;1.00;;;;;;5043468;28;20437;-86
2021/09/20 05:25:41;;;;;;;5.47;4.50;;;13.10;1.00;;;;;;5036070;28;20477;-81
2021/09/20 05:28:08;;;;;;;7.80;4.00;;;13.10;1.00;;;;;;5040626;28;20523;-81
2021/09/20 05:30:35;;;;;;;10.90;5.33;;;13.10;1.00;;;;;;5034571;28;20464;-80
2021/09/20 05:33:02;;;;;;;9.23;6.60;;;13.20;1.00;;;;;;5035136;28;20499;-81
2021/09/20 05:35:29;;;;;;;7.27;4.90;;;13.20;1.00;;;;;;5037847;28;21744;-82
2021/09/20 05:37:57;;;;;;;7.00;5.03;;;13.20;1.00;;;;;;5038036;28;20508;-79
2021/09/20 05:40:24;;;;;;;7.90;5.20;;;13.20;1.00;;;;;;5042974;28;20475;-82
2021/09/20 05:42:56;;;;;;;7.83;6.50;;;13.20;1.00;;;;;;5035089;28;20402;-81
2021/09/20 05:45:24;;;;;;;7.97;5.87;;;13.20;1.00;;;;;;5035679;28;21455;-82
2021/09/20 05:47:51;;;;;;;13.03;5.70;;;13.20;1.00;;;;;;5029272;28;20487;-79
2021/09/20 05:50:19;;;;;;;6.53;4.80;;;13.20;1.00;;;;;;5029475;28;20496;-79
2021/09/20 05:52:46;;;;;;;6.60;5.30;;;13.20;1.00;;;;;;5033454;28;20464;-80
2021/09/20 05:55:15;;;;;;;5.60;4.40;;;13.20;1.00;;;;;;5027359;28;20542;-76
2021/09/20 05:57:43;;;;;;;10.27;5.53;;;13.20;1.00;;;;;;5028957;28;20457;-78
2021/09/20 06:00:11;;;;;;;6.50;4.40;;;13.20;1.00;;;;;;5028766;28;20444;-78
2021/09/20 06:02:38;;;;;;;11.90;4.73;;;13.20;1.00;;;;;;5021744;28;20456;-77
2021/09/20 06:05:05;;;;;;;6.83;4.70;;;13.30;1.00;;;;;;5014882;28;20483;-77
2021/09/20 06:07:32;;;;;;;9.33;6.20;;;13.30;1.00;;;;;;5029450;28;20446;-78
2021/09/20 06:09:59;;;;;;;9.57;5.33;;;13.40;1.00;;;;;;5031215;28;20424;-78
2021/09/20 06:12:27;;;;;;;4.60;4.17;;;13.40;1.00;;;;;;5023433;28;20460;-77
2021/09/20 06:14:54;;;;;;;5.87;4.17;;;13.50;1.00;;;;;;5027919;28;20470;-77
2021/09/20 06:17:20;;;;;;;8.10;4.50;;;13.50;1.00;;;;;;5024771;28;20453;-79
2021/09/20 06:19:47;;;;;;;6.47;4.40;;;13.60;1.00;;;;;;5020352;28;20456;-79
2021/09/20 06:22:14;;;;;;;8.37;5.43;;;13.60;1.00;;;;;;5019765;28;20539;-79
2021/09/20 06:24:41;;;;;;;7.57;6.07;;;13.70;1.00;;;;;;5023611;28;20514;-78
2021/09/20 06:27:09;;;;;;;13.50;11.67;;;13.70;1.00;;;;;;5024522;28;20996;-77
2021/09/20 06:29:37;;;;;;;13.63;5.40;;;13.80;1.00;;;;;;5021715;28;20550;-77
2021/09/20 06:32:04;;;;;;;10.13;5.23;;;13.80;1.00;;;;;;5021634;28;20490;-78
2021/09/20 06:34:30;;;;;;;9.40;5.00;;;13.80;1.00;;;;;;5025047;28;20716;-78
2021/09/20 06:36:59;;;;;;;6.80;4.60;;;14.00;1.00;;;;;;5022691;28;21970;-77
2021/09/20 06:39:25;;;;;;;9.47;5.03;;;14.00;1.00;;;;;;5022976;28;20471;-77
2021/09/20 06:41:52;;;;;;;14.30;5.87;;;14.10;1.00;;;;;;5025592;28;21023;-78
2021/09/20 06:44:19;;;;;;;7.07;5.00;;;14.10;1.00;;;;;;5026284;28;20460;-78
2021/09/20 06:46:47;;;;;;;7.87;5.00;;;14.20;1.00;;;;;;5025427;28;20449;-79
2021/09/20 06:49:15;;;;;;;7.83;4.60;;;14.20;1.00;;;;;;5024668;28;22047;-78
2021/09/20 06:51:43;;;;;;;7.00;4.57;;;14.30;1.00;;;;;;5026575;28;20460;-78
2021/09/20 06:54:09;;;;;;;7.63;4.50;;;14.40;1.00;;;;;;5027780;28;20468;-78
2021/09/20 06:56:38;;;;;;;7.57;4.27;;;14.50;1.00;;;;;;5021382;28;20468;-78
2021/09/20 06:59:05;;;;;;;6.60;5.40;;;14.50;1.00;;;;;;5029674;28;20451;-79
2021/09/20 07:01:32;;;;;;;8.73;4.10;;;14.60;1.00;;;;;;5036532;28;20530;-78
2021/09/20 07:04:00;;;;;;;12.23;4.57;;;14.60;1.00;;;;;;5029365;28;20595;-78
2021/09/20 07:06:27;;;;;;;5.50;4.50;;;14.70;1.00;;;;;;5035677;28;20457;-78
2021/09/20 07:08:53;;;;;;;7.37;4.40;;;14.80;1.00;;;;;;5029433;28;20488;-78
2021/09/20 07:11:20;;;;;;;6.57;4.70;;;14.80;1.00;;;;;;5032854;28;20442;-78
2021/09/20 07:13:47;;;;;;;8.07;4.10;;;14.90;1.00;;;;;;5033367;28;20456;-79
2021/09/20 07:16:14;;;;;;;8.60;7.63;;;14.90;1.00;;;;;;5036738;28;20541;-78
2021/09/20 07:18:40;;;;;;;5.40;4.07;;;15.00;1.00;;;;;;5046155;28;20947;-79
2021/09/20 07:21:09;;;;;;;4.90;4.10;;;15.20;1.00;;;;;;5056665;28;20570;-77
2021/09/20 07:23:36;;;;;;;8.83;4.97;;;15.30;1.00;;;;;;5054636;28;20522;-78
2021/09/20 07:26:04;;;;;;;5.80;3.90;;;15.40;1.00;;;;;;5043914;28;20451;-79
2021/09/20 07:28:30;;;;;;;5.97;4.20;;;15.50;1.00;;;;;;5040276;28;20546;-79
2021/09/20 07:30:57;;;;;;;7.43;4.33;;;15.60;1.00;;;;;;5043735;28;20415;-79
2021/09/20 07:33:24;;;;;;;8.50;4.90;;;15.60;1.00;;;;;;5045698;28;20434;-79
2021/09/20 07:35:51;;;;;;;4.60;3.60;;;15.60;1.00;;;;;;5044447;28;20584;-80
2021/09/20 07:38:19;;;;;;;6.80;4.03;;;15.70;1.00;;;;;;5044643;28;20476;-79
2021/09/20 07:40:46;;;;;;;6.30;4.10;;;15.80;1.00;;;;;;5039379;28;20542;-77
2021/09/20 07:43:12;;;;;;;6.80;4.17;;;15.90;1.00;;;;;;5041205;28;21280;-78
2021/09/20 07:45:39;;;;;;;10.23;5.00;;;16.10;1.00;;;;;;5045196;28;20459;-77
2021/09/20 07:48:06;;;;;;;5.80;4.20;;;16.10;1.00;;;;;;5049447;28;20434;-78
2021/09/20 07:50:33;;;;;;;7.67;5.90;;;16.20;1.00;;;;;;5046213;28;20576;-78
2021/09/20 07:53:00;;;;;;;6.33;4.37;;;16.20;1.00;;;;;;5041579;28;20466;-79
2021/09/20 07:55:34;;;;;;;6.27;3.67;;;16.30;1.00;;;;;;5040287;28;20481;-79
2021/09/20 07:58:01;;;;;;;4.20;3.67;;;16.20;1.00;;;;;;5037222;28;20454;-78
2021/09/20 08:00:28;;;;;;;9.47;4.37;;;16.40;1.00;;;;;;5037910;28;20461;-79
2021/09/20 08:02:55;;;;;;;9.87;5.37;;;16.40;1.00;;;;;;5038965;28;20458;-78
2021/09/20 08:05:21;;;;;;;6.90;4.20;;;16.50;1.00;;;;;;5038390;28;20478;-79
2021/09/20 08:07:48;;;;;;;9.30;4.50;;;16.50;1.00;;;;;;5035195;28;20487;-78
2021/09/20 08:10:16;;;;;;;6.93;4.73;;;16.70;1.00;;;;;;5037885;28;20422;-79
2021/09/20 08:12:44;;;;;;;9.33;5.40;;;16.80;1.00;;;;;;5031019;28;20455;-79
2021/09/20 08:15:12;;;;;;;6.17;3.80;;;16.90;1.00;;;;;;5034470;28;20475;-79
2021/09/20 08:17:38;;;;;;;5.10;4.20;;;16.90;1.00;;;;;;5031012;28;20479;-80
2021/09/20 08:20:08;;;;;;;11.93;3.60;;;16.90;1.00;;;;;;5031621;28;21299;-79
2021/09/20 08:22:34;;;;;;;5.67;4.10;;;17.10;1.00;;;;;;5029605;28;20475;-79
2021/09/20 08:25:01;;;;;;;4.30;3.90;;;17.10;1.00;;;;;;5033668;28;20426;-78
2021/09/20 08:27:28;;;;;;;5.77;3.30;;;17.00;1.00;;;;;;5035204;28;22167;-79
2021/09/20 08:29:56;;;;;;;4.27;3.20;;;17.20;1.00;;;;;;5038407;28;21771;-79
2021/09/20 08:32:23;;;;;;;4.87;3.30;;;17.30;1.00;;;;;;5033088;28;20463;-78
2021/09/20 08:34:50;;;;;;;3.33;3.03;;;17.40;1.00;;;;;;5040482;28;20467;-78
2021/09/20 08:37:16;;;;;;;6.03;3.57;;;17.40;1.00;;;;;;5042623;28;20447;-78
2021/09/20 08:39:43;;;;;;;4.50;2.77;;;17.50;1.00;;;;;;5042360;28;20450;-79
2021/09/20 08:42:10;;;;;;;9.10;3.70;;;17.60;1.00;;;;;;5040852;28;20472;-78
2021/09/20 08:44:37;;;;;;;6.00;3.67;;;17.80;1.00;;;;;;5039459;28;20535;-79
2021/09/20 08:47:05;;;;;;;6.20;3.40;;;17.90;1.00;;;;;;5036616;28;20554;-78
2021/09/20 08:49:34;;;;;;;5.00;3.13;;;18.00;1.00;;;;;;5042688;28;20505;-78
2021/09/20 08:52:02;;;;;;;4.43;3.10;;;18.20;1.00;;;;;;5045385;28;20460;-78
2021/09/20 08:54:29;;;;;;;6.07;4.50;;;18.30;1.00;;;;;;5068741;28;20418;-78
2021/09/20 08:56:55;;;;;;;6.63;4.13;;;18.40;1.00;;;;;;5071864;28;20420;-77
2021/09/20 08:59:23;;;;;;;10.03;4.70;;;18.30;1.00;;;;;;5073146;28;20411;-78
2021/09/20 09:01:53;;;;;;;4.43;3.13;;;18.40;1.00;;;;;;5076989;28;20421;-77
2021/09/20 09:04:30;;;;;;;6.23;3.10;;;18.50;1.00;;;;;;5070774;28;20421;-79
2021/09/20 09:07:00;;;;;;;5.20;3.53;;;18.60;1.00;;;;;;5076273;28;20424;-81
2021/09/20 09:09:28;;;;;;;7.37;5.47;;;18.90;1.00;;;;;;5073458;28;21328;-81
2021/09/20 09:12:09;;;;;;;3.80;2.97;;;19.80;1.00;;;;;;5069825;28;20838;-82
2021/09/20 09:14:40;;;;;;;3.30;3.00;;;20.80;1.00;;;;;;5065131;28;20411;-84
2021/09/20 09:17:13;;;;;;;5.33;3.30;;;22.10;1.00;;;;;;5064661;28;21411;-79
2021/09/20 09:19:47;;;;;;;5.87;3.40;;;23.80;1.00;;;;;;5070438;28;20393;-80
2021/09/20 09:22:14;;;;;;;5.00;3.07;;;25.10;1.00;;;;;;5066793;28;20424;-81
2021/09/20 09:24:54;;;;;;;5.30;4.77;;;24.90;1.00;;;;;;5074133;28;20566;-80
2021/09/20 09:27:22;;;;;;;5.17;3.00;;;24.00;1.00;;;;;;5074273;28;20409;-81
2021/09/20 09:29:49;;;;;;;6.07;3.20;;;24.10;1.00;;;;;;5070539;28;20667;-80
2021/09/20 09:32:18;;;;;;;5.10;3.17;;;24.90;1.00;;;;;;5070490;28;20577;-80
2021/09/20 09:34:55;;;;;;;9.50;5.10;;;26.00;1.00;;;;;;5070316;28;20465;-81
2021/09/20 09:37:23;;;;;;;7.87;3.00;;;26.50;1.00;;;;;;5066334;28;20462;-80
2021/09/20 09:39:50;;;;;;;4.70;3.67;;;25.90;1.00;;;;;;5065662;28;20436;-81
2021/09/20 09:42:24;;;;;;;3.57;2.90;;;26.10;1.00;;;;;;5068303;28;20443;-80
2021/09/20 09:44:51;;;;;;;3.47;2.80;;;25.80;1.00;;;;;;5068700;28;20396;-81
2021/09/20 09:47:26;;;;;;;3.63;3.20;;;24.30;1.00;;;;;;5069335;28;20463;-80
2021/09/20 09:50:17;;;;;;;4.90;3.90;;;23.10;1.00;;;;;;5067503;28;20624;-81
2021/09/20 09:52:44;;;;;;;4.07;3.67;;;23.10;1.00;;;;;;5070076;28;21029;-80
2021/09/20 09:55:12;;;;;;;7.33;5.20;;;23.10;1.00;;;;;;5072299;28;20693;-79
2021/09/20 09:57:39;;;;;;;8.13;4.23;;;22.40;1.00;;;;;;5066520;28;20426;-80
2021/09/20 10:00:10;;;;;;;6.00;3.90;;;21.50;1.00;;;;;;5067590;28;21082;-80
2021/09/20 10:02:38;;;;;;;4.63;3.53;;;20.50;1.00;;;;;;5066276;28;24064;-79
2021/09/20 10:05:08;;;;;;;7.70;3.90;;;19.80;1.00;;;;;;5066261;28;20450;-80
2021/09/20 10:07:38;;;;;;;8.53;4.07;;;19.20;1.00;;;;;;5064664;28;20481;-80
2021/09/20 10:10:08;;;;;;;5.13;3.17;;;18.80;1.00;;;;;;5067210;28;20434;-80
2021/09/20 10:12:35;;;;;;;4.13;3.60;;;18.40;1.00;;;;;;5066694;28;20475;-79
2021/09/20 10:15:03;;;;;;;7.30;4.00;;;18.10;1.00;;;;;;5064401;28;20459;-80
2021/09/20 10:17:31;;;;;;;5.97;4.33;;;17.80;1.00;;;;;;5067627;28;20430;-77
2021/09/20 10:20:00;;;;;;;3.63;3.20;;;17.60;1.00;;;;;;5057267;28;20423;-80
2021/09/20 10:22:28;;;;;;;7.63;4.03;;;17.40;1.00;;;;;;5063794;28;20420;-80
2021/09/20 10:24:59;;;;;;;6.03;3.80;;;17.30;1.00;;;;;;5065790;28;20446;-79
2021/09/20 10:27:28;;;;;;;5.13;3.20;;;17.20;1.00;;;;;;5066403;28;20409;-80
2021/09/20 10:29:59;;;;;;;5.80;4.27;;;17.10;1.00;;;;;;5064037;28;20417;-80
2021/09/20 10:32:28;;;;;;;5.33;3.80;;;17.00;1.00;;;;;;5064281;28;20448;-79
2021/09/20 10:35:23;;;;;;;4.77;3.73;;;16.90;1.00;;;;;;5065315;28;20436;-79
2021/09/20 10:37:49;;;;;;;9.50;7.53;;;16.90;1.00;;;;;;5059932;28;20431;-80
2021/09/20 10:40:18;;;;;;;6.60;5.20;;;16.90;1.00;;;;;;5057016;28;20531;-81
2021/09/20 10:43:02;;;;;;;5.43;4.17;;;16.90;1.00;;;;;;5058064;28;20463;-80
2021/09/20 10:45:42;;;;;;;5.73;4.30;;;16.80;1.00;;;;;;5050617;28;20495;-80
2021/09/20 10:48:21;;;;;;;10.13;5.00;;;17.00;1.00;;;;;;5051799;28;20424;-80
2021/09/20 10:50:50;;;;;;;7.90;5.17;;;17.00;1.00;;;;;;5048422;28;20900;-81
2021/09/20 10:53:18;;;;;;;6.20;3.90;;;17.00;1.00;;;;;;5065097;28;20483;-82
2021/09/20 10:56:16;;;;;;;5.33;3.70;;;17.00;1.00;;;;;;5066188;28;20482;-82
2021/09/20 10:58:44;;;;;;;5.50;3.93;;;17.10;1.00;;;;;;5058890;28;20404;-84
2021/09/20 11:01:30;;;;;;;9.93;4.80;;;17.10;1.00;;;;;;5060772;28;20420;-81
2021/09/20 11:03:59;;;;;;;6.83;4.00;;;17.20;1.00;;;;;;5062963;28;20502;-81
2021/09/20 11:06:29;;;;;;;8.13;4.20;;;17.30;1.00;;;;;;5052684;28;20473;-82
2021/09/20 11:09:31;;;;;;;5.93;4.60;;;17.30;1.00;;;;;;5043320;28;20424;-81
2021/09/20 11:12:11;;;;;;;6.53;4.97;;;17.40;1.00;;;;;;5030460;28;20464;-82
2021/09/20 11:14:44;;;;;;;5.37;4.00;;;17.60;1.00;;;;;;5026318;28;20474;-81
2021/09/20 11:17:26;;;;;;;5.93;4.50;;;17.70;1.00;;;;;;5028738;28;20496;-81
2021/09/20 11:19:56;;;;;;;8.87;6.30;;;17.90;1.00;;;;;;5031280;28;20421;-82
2021/09/20 11:22:29;;;;;;;6.23;4.90;;;18.00;1.00;;;;;;5040917;28;20548;-82
2021/09/20 11:25:02;;;;;;;4.87;3.90;;;18.00;1.00;;;;;;5033265;28;20706;-82
2021/09/20 11:27:33;;;;;;;7.33;4.90;;;18.00;1.00;;;;;;5036136;28;20468;-82
2021/09/20 11:30:03;;;;;;;5.53;4.70;;;18.00;1.00;;;;;;5039458;28;20461;-82
2021/09/20 11:32:30;;;;;;;5.43;4.17;;;18.00;1.00;;;;;;5044467;28;20510;-82
2021/09/20 11:34:59;;;;;;;4.57;3.87;;;17.90;1.00;;;;;;5025305;28;20460;-82
2021/09/20 11:37:29;;;;;;;5.40;4.20;;;17.80;1.00;;;;;;5026338;28;20473;-81
2021/09/20 11:39:58;;;;;;;5.93;4.30;;;17.80;1.00;;;;;;5025960;28;20442;-81
2021/09/20 11:42:27;;;;;;;5.07;4.20;;;17.80;1.00;;;;;;5036154;28;20603;-82
2021/09/20 11:44:57;;;;;;;8.53;4.77;;;17.80;1.00;;;;;;5034867;28;20537;-81
2021/09/20 11:47:26;;;;;;;6.37;5.10;;;17.90;1.00;;;;;;5032045;28;20488;-79
2021/09/20 11:50:02;;;;;;;6.60;4.77;;;17.90;1.00;;;;;;5031787;28;20441;-82
2021/09/20 11:52:34;;;;;;;5.57;4.73;;;18.00;1.00;;;;;;5025410;28;20460;-81
2021/09/20 11:55:01;;;;;;;5.13;4.63;;;18.00;1.00;;;;;;5025082;28;20540;-81
2021/09/20 11:57:32;;;;;;;9.17;8.03;;;18.10;1.00;;;;;;5026609;28;20521;-82
2021/09/20 12:00:02;;;;;;;4.33;3.30;;;18.20;1.00;;;;;;5033924;28;20484;-82
2021/09/20 12:02:39;;;;;;;4.47;3.80;;;18.20;1.00;;;;;;5034077;28;23922;-82
2021/09/20 12:05:08;;;;;;;6.40;4.03;;;18.20;1.00;;;;;;5025565;28;20466;-82
2021/09/20 12:07:39;;;;;;;5.80;3.40;;;18.40;1.00;;;;;;5024533;28;20444;-81
2021/09/20 12:10:07;;;;;;;5.23;3.97;;;18.40;1.00;;;;;;5016884;28;20541;-81
2021/09/20 12:12:36;;;;;;;6.53;4.77;;;18.50;1.00;;;;;;5020089;28;20461;-81
2021/09/20 12:15:11;;;;;;;5.93;3.83;;;18.60;1.00;;;;;;5026744;28;20467;-82
2021/09/20 12:17:46;;;;;;;4.43;4.03;;;18.70;1.00;;;;;;5032375;28;21747;-81
2021/09/20 12:20:13;;;;;;;5.03;3.50;;;18.80;1.00;;;;;;5030797;28;21323;-80
2021/09/20 12:22:42;;;;;;;3.80;3.30;;;18.80;1.00;;;;;;5027425;28;20476;-80
2021/09/20 12:25:20;;;;;;;4.60;3.93;;;18.80;1.00;;;;;;5025081;28;21761;-78
2021/09/20 12:27:47;;;;;;;8.93;5.37;;;18.80;1.00;;;;;;5026735;28;20464;-81
2021/09/20 12:30:16;;;;;;;6.40;4.13;;;18.70;1.00;;;;;;5024583;28;20456;-78
2021/09/20 12:32:43;;;;;;;4.97;3.70;;;18.60;1.00;;;;;;5027567;28;20506;-81
2021/09/20 12:35:10;;;;;;;5.43;4.07;;;18.60;1.00;;;;;;5027332;28;21347;-81
2021/09/20 12:37:37;;;;;;;7.83;4.60;;;18.50;1.00;;;;;;5026793;28;20453;-80
2021/09/20 12:40:16;;;;;;;4.67;4.20;;;18.50;1.00;;;;;;5026053;28;20436;-80
2021/09/20 12:42:42;;;;;;;7.10;4.20;;;18.50;1.00;;;;;;5034682;28;21019;-82
2021/09/20 12:45:19;;;;;;;7.93;4.90;;;18.70;1.00;;;;;;5022448;28;20475;-81
2021/09/20 12:47:56;;;;;;;4.80;3.70;;;18.80;1.00;;;;;;5027983;28;20684;-80
2021/09/20 12:50:22;;;;;;;4.90;3.90;;;18.90;1.00;;;;;;5031635;28;20460;-79
2021/09/20 12:52:55;;;;;;;5.97;4.23;;;18.90;1.00;;;;;;5038986;28;20546;-79
2021/09/20 12:55:33;;;;;;;10.10;4.73;;;18.90;1.00;;;;;;5031608;28;20476;-80
2021/09/20 12:58:03;;;;;;;4.40;3.93;;;18.80;1.00;;;;;;5028116;28;20746;-79
2021/09/20 13:00:34;;;;;;;4.70;4.23;;;18.90;1.00;;;;;;5031749;28;20452;-80
2021/09/20 13:03:09;;;;;;;4.70;4.10;;;19.00;1.00;;;;;;5026088;28;21568;-80
2021/09/20 13:05:43;;;;;;;5.47;4.70;;;18.90;1.00;;;;;;5021699;28;20425;-78
2021/09/20 13:08:10;;;;;;;8.30;5.07;;;18.90;1.00;;;;;;5025019;28;21698;-80